Time;durP1;ratioP1;P1;durP2;ratioP2;P2;SDS_P1;SDS_P2;PMS_P1;PMS_P2;Temp;Humidity;BMP_temperature;BMP_pressure;BME280_temperature;BME280_humidity;BME280_pressure;Samples;Min_cycle;Max_cycle;Signal;HPM_P1;HPM_P2
2021/08/04 00:00:59;;;;;;;1999.90;999.90;;;;;;;19.45;87.80;95598.56;5026082;28;20212;-69
2021/08/04 00:03:26;;;;;;;1999.90;999.90;;;;;;;19.52;86.65;95591.59;5026799;28;20213;-70
2021/08/04 00:05:53;;;;;;;1999.90;999.90;;;;;;;19.41;87.88;95595.84;5026676;28;20204;-68
2021/08/04 00:08:20;;;;;;;1999.90;999.90;;;;;;;19.19;88.60;95602.56;5026779;28;20208;-69
2021/08/04 00:10:49;;;;;;;1999.90;999.90;;;;;;;19.29;88.29;95590.69;5026287;28;20654;-67
2021/08/04 00:13:17;;;;;;;1999.90;999.90;;;;;;;19.27;88.79;95595.56;5026437;28;20728;-68
2021/08/04 00:15:44;;;;;;;1999.90;999.90;;;;;;;19.45;86.19;95588.03;5026608;28;20206;-68
2021/08/04 00:18:12;;;;;;;1999.90;999.90;;;;;;;19.59;83.80;95599.63;5026573;28;20674;-68
2021/08/04 00:20:39;;;;;;;1999.90;999.90;;;;;;;19.67;84.40;95605.81;5026770;28;20198;-69
2021/08/04 00:23:06;;;;;;;1999.90;999.90;;;;;;;19.68;83.54;95602.81;5026604;28;20198;-68
2021/08/04 00:25:33;;;;;;;1999.90;999.90;;;;;;;19.47;84.93;95607.69;5026429;28;20229;-68
2021/08/04 00:28:02;;;;;;;1999.90;999.90;;;;;;;19.22;86.76;95616.94;5026699;28;20205;-68
2021/08/04 00:30:29;;;;;;;1999.90;999.90;;;;;;;19.12;88.44;95617.47;5026339;28;20194;-66
2021/08/04 00:32:57;;;;;;;1999.90;999.90;;;;;;;18.99;89.54;95614.16;5026429;28;20213;-69
2021/08/04 00:35:25;;;;;;;1999.90;999.90;;;;;;;18.97;89.95;95613.00;5026314;28;20229;-69
2021/08/04 00:37:53;;;;;;;1999.90;999.90;;;;;;;19.00;90.48;95605.16;5026439;28;20974;-68
2021/08/04 00:40:20;;;;;;;1999.90;999.90;;;;;;;19.03;90.12;95617.63;5026917;28;20222;-67
2021/08/04 00:42:47;;;;;;;1999.90;999.90;;;;;;;18.99;90.28;95618.66;5026338;28;20202;-67
2021/08/04 00:45:16;;;;;;;1999.90;999.90;;;;;;;18.81;91.17;95619.06;5026226;28;20251;-67
2021/08/04 00:47:43;;;;;;;1999.90;999.90;;;;;;;18.70;92.29;95622.53;5026117;28;20201;-68
2021/08/04 00:50:11;;;;;;;1999.90;999.90;;;;;;;18.77;91.86;95612.94;5026594;28;20905;-67
2021/08/04 00:52:39;;;;;;;1999.90;999.90;;;;;;;18.82;90.19;95614.56;5026468;28;20539;-68
2021/08/04 00:55:07;;;;;;;1999.90;999.90;;;;;;;18.76;90.57;95613.28;5026065;28;20231;-68
2021/08/04 00:57:34;;;;;;;1999.90;999.90;;;;;;;18.75;90.99;95611.75;5025710;28;20230;-68
2021/08/04 01:00:03;;;;;;;1999.90;999.90;;;;;;;18.67;90.58;95610.84;5026269;28;20254;-68
2021/08/04 01:02:38;;;;;;;1999.90;999.90;;;;;;;18.74;90.06;95624.16;5025844;28;20229;-68
2021/08/04 01:05:10;;;;;;;1999.90;999.90;;;;;;;18.47;91.00;95619.72;5026124;28;20738;-68
2021/08/04 01:07:42;;;;;;;1999.90;999.90;;;;;;;18.28;91.64;95623.00;5025896;28;20186;-67
2021/08/04 01:10:13;;;;;;;1999.90;999.90;;;;;;;18.24;92.18;95618.78;5025907;28;20190;-68
2021/08/04 01:12:45;;;;;;;1999.90;999.90;;;;;;;18.12;93.05;95618.84;5026314;28;20289;-68
2021/08/04 01:15:14;;;;;;;1999.90;999.90;;;;;;;17.99;94.39;95618.16;5025749;28;20193;-67
2021/08/04 01:17:48;;;;;;;1999.90;999.90;;;;;;;18.10;93.52;95610.53;5025799;28;20228;-68
2021/08/04 01:20:19;;;;;;;1999.90;999.90;;;;;;;18.13;93.50;95610.63;5025836;28;20189;-68
2021/08/04 01:22:59;;;;;;;1999.90;999.90;;;;;;;18.00;93.86;95609.94;5027178;28;20189;-68
2021/08/04 01:25:32;;;;;;;1999.90;999.90;;;;;;;18.13;93.70;95604.59;5029213;28;20192;-68
2021/08/04 01:28:20;;;;;;;1999.90;999.90;;;;;;;18.18;93.25;95612.25;5029118;28;20281;-69
2021/08/04 01:30:51;;;;;;;1999.90;999.90;;;;;;;18.33;93.00;95604.34;5029343;28;20634;-68
2021/08/04 01:33:19;;;;;;;1999.90;999.90;;;;;;;18.15;93.39;95607.66;5029154;28;20206;-68
2021/08/04 01:35:47;;;;;;;1999.90;999.90;;;;;;;18.04;94.72;95608.16;5028985;28;20798;-68
2021/08/04 01:38:19;;;;;;;1999.90;999.90;;;;;;;18.02;94.41;95610.38;5028776;28;20234;-68
2021/08/04 01:40:48;;;;;;;1999.90;999.90;;;;;;;18.10;93.54;95605.25;5026261;28;20670;-69
2021/08/04 01:43:19;;;;;;;1999.90;999.90;;;;;;;18.13;93.19;95607.25;5024221;28;20671;-67
2021/08/04 01:45:47;;;;;;;1999.90;999.90;;;;;;;18.16;92.58;95615.22;5028824;28;20190;-65
2021/08/04 01:48:15;;;;;;;1999.90;999.90;;;;;;;17.99;92.89;95613.66;5025538;28;20205;-68
2021/08/04 01:50:43;;;;;;;1999.90;999.90;;;;;;;18.11;92.16;95618.09;5023208;28;20712;-68
2021/08/04 01:53:11;;;;;;;1999.90;999.90;;;;;;;18.10;92.35;95623.69;5028580;28;20202;-69
2021/08/04 01:55:39;;;;;;;1999.90;999.90;;;;;;;18.03;92.57;95613.75;5028966;28;20206;-68
2021/08/04 01:58:06;;;;;;;1999.90;999.90;;;;;;;18.08;92.31;95615.38;5026899;28;20241;-68
2021/08/04 02:00:34;;;;;;;1999.90;999.90;;;;;;;17.97;93.50;95615.09;5027596;28;20229;-67
2021/08/04 02:03:02;;;;;;;1999.90;999.90;;;;;;;18.04;92.40;95620.53;5016336;28;20198;-67
2021/08/04 02:05:29;;;;;;;1999.90;999.90;;;;;;;18.06;92.39;95616.47;5026061;28;20266;-67
2021/08/04 02:08:07;;;;;;;1999.90;999.90;;;;;;;18.06;92.13;95621.72;5027904;28;20194;-67
2021/08/04 02:10:43;;;;;;;1999.90;999.90;;;;;;;18.11;91.74;95625.22;5027419;28;20210;-67
2021/08/04 02:13:22;;;;;;;1999.90;999.90;;;;;;;18.08;91.98;95619.50;5028260;28;20194;-68
2021/08/04 02:15:54;;;;;;;1999.90;999.90;;;;;;;17.96;92.54;95621.47;5028270;28;20186;-68
2021/08/04 02:18:29;;;;;;;1999.90;999.90;;;;;;;17.88;92.71;95625.75;5028161;28;20259;-68
2021/08/04 02:20:58;;;;;;;1999.90;999.90;;;;;;;17.92;92.41;95628.50;5028258;28;20665;-69
2021/08/04 02:23:30;;;;;;;1999.90;999.90;;;;;;;18.01;91.80;95635.13;5028203;28;21009;-68
2021/08/04 02:26:01;;;;;;;1999.90;999.90;;;;;;;17.87;91.40;95634.75;5028369;28;20186;-69
2021/08/04 02:28:33;;;;;;;1999.90;999.90;;;;;;;17.83;91.91;95627.88;5027873;28;20658;-67
2021/08/04 02:31:02;;;;;;;1999.90;999.90;;;;;;;17.79;91.96;95638.28;5028070;28;20239;-68
2021/08/04 02:33:30;;;;;;;1999.90;999.90;;;;;;;17.70;92.09;95640.31;5026731;28;20220;-67
2021/08/04 02:35:58;;;;;;;1999.90;999.90;;;;;;;17.61;92.45;95639.69;5019266;28;20204;-70
2021/08/04 02:38:25;;;;;;;1999.90;999.90;;;;;;;17.59;93.27;95641.88;5018908;28;20223;-68
2021/08/04 02:40:53;;;;;;;1999.90;999.90;;;;;;;17.51;93.74;95642.75;5016060;28;20200;-67
2021/08/04 02:43:22;;;;;;;1999.90;999.90;;;;;;;17.34;94.20;95637.75;5016263;28;20891;-68
2021/08/04 02:45:50;;;;;;;1999.90;999.90;;;;;;;17.25;94.79;95639.75;5017226;28;20202;-68
2021/08/04 02:48:21;;;;;;;1999.90;999.90;;;;;;;17.35;94.41;95641.91;5017794;28;21051;-68
2021/08/04 02:50:49;;;;;;;1999.90;999.90;;;;;;;17.41;94.22;95640.59;5027939;28;20221;-68
2021/08/04 02:53:17;;;;;;;1999.90;999.90;;;;;;;17.51;93.89;95651.41;5014552;28;20236;-69
2021/08/04 02:55:44;;;;;;;1999.90;999.90;;;;;;;17.46;94.05;95646.38;5008259;28;20582;-67
2021/08/04 02:58:13;;;;;;;1999.90;999.90;;;;;;;17.46;94.27;95650.88;5007866;28;20242;-68
2021/08/04 03:00:40;;;;;;;1999.90;999.90;;;;;;;17.51;94.29;95656.66;5008163;28;20199;-68
2021/08/04 03:03:07;;;;;;;1999.90;999.90;;;;;;;17.39;94.46;95656.69;5016332;28;20210;-67
2021/08/04 03:05:36;;;;;;;1999.90;999.90;;;;;;;17.44;93.45;95659.06;5027797;28;20200;-67
2021/08/04 03:08:03;;;;;;;1999.90;999.90;;;;;;;17.33;94.50;95667.75;5027537;28;20213;-68
2021/08/04 03:10:31;;;;;;;1999.90;999.90;;;;;;;17.42;93.97;95660.50;5045335;28;20248;-70
2021/08/04 03:12:59;;;;;;;1999.90;999.90;;;;;;;17.34;94.14;95658.75;5102863;28;20210;-70
2021/08/04 03:15:26;;;;;;;1999.90;999.90;;;;;;;17.23;94.62;95662.97;5023360;28;20206;-69
2021/08/04 03:17:53;;;;;;;1999.90;999.90;;;;;;;17.28;93.56;95670.63;5014839;28;20278;-70
2021/08/04 03:20:21;;;;;;;1999.90;999.90;;;;;;;17.19;94.79;95678.59;5016494;28;20591;-70
2021/08/04 03:22:50;;;;;;;1999.90;999.90;;;;;;;17.28;94.02;95681.88;5021935;28;20698;-69
2021/08/04 03:25:19;;;;;;;1999.90;999.90;;;;;;;17.24;93.84;95686.25;5018552;28;20577;-69
2021/08/04 03:27:47;;;;;;;1999.90;999.90;;;;;;;17.29;93.07;95678.16;5027300;28;20608;-69
2021/08/04 03:30:14;;;;;;;1999.90;999.90;;;;;;;17.25;92.56;95685.16;5025379;28;20221;-69
2021/08/04 03:32:42;;;;;;;1999.90;999.90;;;;;;;17.11;93.09;95680.25;5015771;28;20206;-68
2021/08/04 03:35:11;;;;;;;1999.90;999.90;;;;;;;17.19;93.20;95679.38;5024771;28;20719;-70
2021/08/04 03:37:38;;;;;;;1999.90;999.90;;;;;;;17.11;93.56;95690.00;5026224;28;20233;-69
2021/08/04 03:40:08;;;;;;;1999.90;999.90;;;;;;;17.13;93.56;95680.72;5019042;28;20209;-69
2021/08/04 03:42:36;;;;;;;1999.90;999.90;;;;;;;17.23;93.37;95685.47;5020182;28;20197;-72
2021/08/04 03:45:03;;;;;;;1999.90;999.90;;;;;;;17.29;93.07;95685.25;5026582;28;20206;-68
2021/08/04 03:47:30;;;;;;;1999.90;999.90;;;;;;;17.23;93.35;95674.97;5026821;28;20190;-68
2021/08/04 03:49:57;;;;;;;1999.90;999.90;;;;;;;17.33;92.99;95678.28;5026696;28;20202;-69
2021/08/04 03:52:25;;;;;;;1999.90;999.90;;;;;;;17.40;92.82;95681.84;5027127;28;20621;-69
2021/08/04 03:54:52;;;;;;;1999.90;999.90;;;;;;;17.59;91.73;95686.53;5027008;28;20201;-69
2021/08/04 03:57:20;;;;;;;1999.90;999.90;;;;;;;17.50;92.02;95675.38;5025561;28;20274;-69
2021/08/04 03:59:47;;;;;;;1999.90;999.90;;;;;;;17.78;91.39;95688.59;5026924;28;20194;-69
2021/08/04 04:02:15;;;;;;;1999.90;999.90;;;;;;;17.74;91.24;95692.97;5026034;28;20197;-69
2021/08/04 04:04:42;;;;;;;1999.90;999.90;;;;;;;17.74;91.51;95687.72;5024904;28;20236;-68
2021/08/04 04:07:09;;;;;;;1999.90;999.90;;;;;;;17.88;91.11;95694.13;5008604;28;20229;-68
2021/08/04 04:09:36;;;;;;;1999.90;999.90;;;;;;;18.00;90.69;95699.34;5004226;28;20199;-68
2021/08/04 04:12:04;;;;;;;1999.90;999.90;;;;;;;18.19;89.79;95693.44;5004521;28;20245;-69
2021/08/04 04:14:33;;;;;;;1999.90;999.90;;;;;;;18.28;89.14;95699.31;5004544;28;20302;-69
2021/08/04 04:17:00;;;;;;;1999.90;999.90;;;;;;;18.44;89.15;95701.97;5004333;28;20203;-69
2021/08/04 04:19:27;;;;;;;1999.90;999.90;;;;;;;18.61;89.14;95698.28;5004437;28;20209;-69
2021/08/04 04:21:54;;;;;;;1999.90;999.90;;;;;;;18.71;88.51;95708.31;5005787;28;20206;-69
2021/08/04 04:24:22;;;;;;;1999.90;999.90;;;;;;;18.90;87.98;95708.41;5006843;28;20193;-69
2021/08/04 04:26:50;;;;;;;1999.90;999.90;;;;;;;19.13;87.03;95719.09;5006743;28;20252;-69
2021/08/04 04:29:17;;;;;;;1999.90;999.90;;;;;;;19.29;86.35;95712.69;5006806;28;20203;-69
2021/08/04 04:31:46;;;;;;;1999.90;999.90;;;;;;;19.31;86.76;95713.13;5006888;28;20697;-69
2021/08/04 04:34:13;;;;;;;1999.90;999.90;;;;;;;19.44;85.40;95710.38;5007086;28;20221;-67
2021/08/04 04:36:40;;;;;;;1999.90;999.90;;;;;;;19.92;82.63;95724.97;5006606;28;20666;-67
2021/08/04 04:39:07;;;;;;;1999.90;999.90;;;;;;;20.17;79.63;95718.31;5006793;28;20233;-67
2021/08/04 04:41:34;;;;;;;1999.90;999.90;;;;;;;20.36;78.05;95720.94;5006678;28;20203;-68
2021/08/04 04:44:01;;;;;;;1999.90;999.90;;;;;;;20.66;76.79;95717.69;5006652;28;20202;-67
2021/08/04 04:46:28;;;;;;;1999.90;999.90;;;;;;;20.79;76.52;95722.44;5006554;28;20199;-68
2021/08/04 04:48:57;;;;;;;1999.90;999.90;;;;;;;21.01;76.37;95724.31;5006462;28;20201;-68
2021/08/04 04:51:24;;;;;;;1999.90;999.90;;;;;;;21.32;74.74;95735.75;5006702;28;20961;-67
2021/08/04 04:53:51;;;;;;;1999.90;999.90;;;;;;;21.51;74.52;95726.94;5006691;28;20282;-67
2021/08/04 04:56:19;;;;;;;1999.90;999.90;;;;;;;21.72;73.44;95729.84;5006031;28;20724;-69
2021/08/04 04:58:46;;;;;;;1999.90;999.90;;;;;;;21.90;72.11;95736.91;5014631;28;20225;-67
2021/08/04 05:01:13;;;;;;;1999.90;999.90;;;;;;;22.16;71.51;95735.38;5026375;28;20202;-69
2021/08/04 05:03:40;;;;;;;1999.90;999.90;;;;;;;22.18;69.54;95744.47;5025923;28;20202;-68
2021/08/04 05:06:09;;;;;;;1999.90;999.90;;;;;;;22.37;69.75;95748.06;5025974;28;20206;-67
2021/08/04 05:08:36;;;;;;;1999.90;999.90;;;;;;;22.59;66.75;95747.16;5025745;28;20588;-68
2021/08/04 05:11:04;;;;;;;1999.90;999.90;;;;;;;22.77;67.91;95747.34;5025765;28;20250;-68
2021/08/04 05:13:31;;;;;;;1999.90;999.90;;;;;;;23.01;72.09;95750.22;5025839;28;20194;-68
2021/08/04 05:15:58;;;;;;;1999.90;999.90;;;;;;;22.80;74.89;95751.94;5026086;28;20326;-68
2021/08/04 05:18:25;;;;;;;1999.90;999.90;;;;;;;22.61;75.93;95756.28;5025810;28;20232;-68
2021/08/04 05:20:52;;;;;;;1999.90;999.90;;;;;;;22.90;75.18;95749.38;5025976;28;20194;-67
2021/08/04 05:23:21;;;;;;;1999.90;999.90;;;;;;;22.98;73.93;95758.16;5026110;28;20197;-68
2021/08/04 05:25:48;;;;;;;1999.90;999.90;;;;;;;22.97;74.39;95765.34;5025567;28;20206;-68
2021/08/04 05:28:15;;;;;;;1999.90;999.90;;;;;;;23.17;74.73;95771.19;5025975;28;20240;-67
2021/08/04 05:30:43;;;;;;;1999.90;999.90;;;;;;;23.41;73.12;95769.88;5025927;28;20198;-68
2021/08/04 05:33:10;;;;;;;1999.90;999.90;;;;;;;23.55;72.19;95772.63;5025491;28;20198;-67
2021/08/04 05:35:37;;;;;;;1999.90;999.90;;;;;;;23.63;71.63;95776.84;5025457;28;20234;-68
2021/08/04 05:38:04;;;;;;;1999.90;999.90;;;;;;;23.51;71.56;95771.84;5025639;28;20248;-68
2021/08/04 05:40:33;;;;;;;1999.90;999.90;;;;;;;23.55;71.07;95769.97;5025749;28;20202;-68
2021/08/04 05:43:00;;;;;;;1999.90;999.90;;;;;;;23.59;70.87;95765.44;5025522;28;20284;-68
2021/08/04 05:45:27;;;;;;;1999.90;999.90;;;;;;;23.63;69.54;95763.59;5025479;28;20197;-68
2021/08/04 05:47:54;;;;;;;1999.90;999.90;;;;;;;23.93;68.81;95773.97;5025311;28;20307;-68
2021/08/04 05:50:22;;;;;;;1999.90;999.90;;;;;;;24.00;66.86;95774.03;5025674;28;20281;-68
2021/08/04 05:52:50;;;;;;;1999.90;999.90;;;;;;;24.39;65.54;95788.25;5025532;28;20277;-67
2021/08/04 05:55:17;;;;;;;1999.90;999.90;;;;;;;24.29;65.14;95794.28;5025684;28;20198;-68
2021/08/04 05:57:46;;;;;;;1999.90;999.90;;;;;;;24.34;65.79;95790.50;5024980;28;20617;-68
2021/08/04 06:00:14;;;;;;;1999.90;999.90;;;;;;;24.76;61.77;95790.63;5024866;28;20198;-68
2021/08/04 06:02:41;;;;;;;1999.90;999.90;;;;;;;25.06;61.33;95792.97;5025386;28;20216;-68
2021/08/04 06:05:09;;;;;;;1999.90;999.90;;;;;;;25.32;59.71;95794.50;5025510;28;20681;-68
2021/08/04 06:07:36;;;;;;;1999.90;999.90;;;;;;;25.53;58.20;95788.41;5025420;28;20197;-69
2021/08/04 06:10:04;;;;;;;1999.90;999.90;;;;;;;25.31;60.74;95792.97;5028390;28;20681;-67
2021/08/04 06:12:32;;;;;;;1999.90;999.90;;;;;;;25.60;60.39;95791.84;5028454;28;20194;-67
2021/08/04 06:15:00;;;;;;;1999.90;999.90;;;;;;;25.77;59.33;95790.31;5028516;28;20205;-67
2021/08/04 06:17:27;;;;;;;1999.90;999.90;;;;;;;25.91;58.52;95790.25;5028319;28;20206;-68
2021/08/04 06:19:55;;;;;;;1999.90;999.90;;;;;;;26.12;57.21;95789.44;5028788;28;20638;-68
2021/08/04 06:22:22;;;;;;;1999.90;999.90;;;;;;;26.20;56.09;95792.88;5028406;28;20202;-68
2021/08/04 06:24:49;;;;;;;1999.90;999.90;;;;;;;26.36;54.82;95783.28;5028730;28;20194;-68
2021/08/04 06:27:16;;;;;;;1999.90;999.90;;;;;;;26.53;53.31;95787.03;5028173;28;20202;-68
2021/08/04 06:29:43;;;;;;;1999.90;999.90;;;;;;;26.73;51.19;95782.72;5028513;28;20197;-68
2021/08/04 06:32:12;;;;;;;1999.90;999.90;;;;;;;26.87;52.29;95782.66;5028473;28;20697;-67
2021/08/04 06:34:39;;;;;;;1999.90;999.90;;;;;;;26.83;52.52;95784.56;5028255;28;20198;-67
2021/08/04 06:37:06;;;;;;;1999.90;999.90;;;;;;;26.79;53.88;95788.41;5028397;28;20202;-67
2021/08/04 06:39:33;;;;;;;1999.90;999.90;;;;;;;27.14;52.54;95792.78;5028097;28;20232;-67
2021/08/04 06:42:01;;;;;;;1999.90;999.90;;;;;;;27.07;51.40;95780.25;5028279;28;20212;-68
2021/08/04 06:44:28;;;;;;;1999.90;999.90;;;;;;;27.33;49.95;95784.25;5028297;28;20594;-68
2021/08/04 06:46:59;;;;;;;1999.90;999.90;;;;;;;27.19;50.19;95793.13;5027326;28;20284;-67
2021/08/04 06:49:27;;;;;;;1999.90;999.90;;;;;;;27.13;51.43;95788.59;5027457;28;20206;-70
2021/08/04 06:51:54;;;;;;;1999.90;999.90;;;;;;;27.27;49.51;95781.22;5028334;28;20202;-69
2021/08/04 06:54:23;;;;;;;1999.90;999.90;;;;;;;27.57;48.89;95777.94;5028336;28;20194;-68
2021/08/04 06:56:50;;;;;;;1999.90;999.90;;;;;;;27.85;48.33;95779.56;5028280;28;20289;-68
2021/08/04 06:59:18;;;;;;;1999.90;999.90;;;;;;;28.02;48.31;95778.63;5027621;28;20245;-69
2021/08/04 07:01:46;;;;;;;1999.90;999.90;;;;;;;27.86;48.47;95783.75;5028297;28;20213;-69
2021/08/04 07:04:14;;;;;;;1999.90;999.90;;;;;;;28.12;47.84;95782.38;5010754;28;20309;-69
2021/08/04 07:06:52;;;;;;;1999.90;999.90;;;;;;;28.31;46.04;95783.66;5008001;28;20210;-69
2021/08/04 07:09:20;;;;;;;1999.90;999.90;;;;;;;28.29;46.72;95776.06;5008065;28;20193;-67
2021/08/04 07:11:47;;;;;;;1999.90;999.90;;;;;;;28.19;49.51;95777.69;5007987;28;20552;-68
2021/08/04 07:14:15;;;;;;;1999.90;999.90;;;;;;;28.36;48.86;95780.56;5007838;28;20203;-69
2021/08/04 07:16:42;;;;;;;1999.90;999.90;;;;;;;28.78;48.03;95780.03;5007767;28;20234;-69
2021/08/04 07:19:10;;;;;;;1999.90;999.90;;;;;;;28.72;48.16;95780.88;5007474;28;20223;-69
2021/08/04 07:21:38;;;;;;;1999.90;999.90;;;;;;;28.86;47.20;95780.69;5007097;28;20202;-69
2021/08/04 07:24:07;;;;;;;1999.90;999.90;;;;;;;28.90;44.73;95782.13;5007699;28;20198;-69
2021/08/04 07:26:36;;;;;;;1999.90;999.90;;;;;;;29.12;46.22;95781.81;5007576;28;20199;-67
2021/08/04 07:29:03;;;;;;;1999.90;999.90;;;;;;;29.21;45.93;95776.69;5007856;28;20221;-69
2021/08/04 07:31:31;;;;;;;1999.90;999.90;;;;;;;28.63;47.29;95776.00;5007614;28;20198;-69
2021/08/04 07:33:58;;;;;;;1999.90;999.90;;;;;;;28.57;48.59;95773.03;5007560;28;20202;-69
2021/08/04 07:36:25;;;;;;;1999.90;999.90;;;;;;;28.45;47.71;95770.88;5023372;28;20202;-69
2021/08/04 07:38:52;;;;;;;1999.90;999.90;;;;;;;28.74;47.19;95771.31;5027283;28;20232;-69
2021/08/04 07:41:21;;;;;;;1999.90;999.90;;;;;;;29.07;44.70;95775.78;5027454;28;20877;-69
2021/08/04 07:43:50;;;;;;;1999.90;999.90;;;;;;;29.32;44.78;95780.75;5027164;28;20289;-69
2021/08/04 07:46:18;;;;;;;1999.90;999.90;;;;;;;29.48;42.87;95774.78;5027426;28;20205;-69
2021/08/04 07:48:45;;;;;;;1999.90;999.90;;;;;;;29.71;43.01;95769.38;5027194;28;20616;-69
2021/08/04 07:51:13;;;;;;;1999.90;999.90;;;;;;;30.05;40.73;95766.47;5026467;28;20206;-69
2021/08/04 07:53:40;;;;;;;1999.90;999.90;;;;;;;29.94;40.44;95765.91;5027211;28;20285;-69
2021/08/04 07:56:07;;;;;;;1999.90;999.90;;;;;;;30.17;38.72;95757.81;5026942;28;20205;-68
2021/08/04 07:58:36;;;;;;;1999.90;999.90;;;;;;;30.27;39.57;95764.13;5026761;28;20241;-69
2021/08/04 08:01:03;;;;;;;1999.90;999.90;;;;;;;30.29;41.07;95761.78;5027022;28;20225;-68
2021/08/04 08:03:30;;;;;;;1999.90;999.90;;;;;;;30.55;38.50;95766.25;5026767;28;20218;-69
2021/08/04 08:05:58;;;;;;;1999.90;999.90;;;;;;;30.59;39.10;95766.16;5027090;28;20206;-68
2021/08/04 08:08:25;;;;;;;1999.90;999.90;;;;;;;30.29;38.76;95764.44;5026944;28;20581;-68
2021/08/04 08:10:53;;;;;;;1999.90;999.90;;;;;;;30.86;38.23;95763.28;5026528;28;20205;-68
2021/08/04 08:13:20;;;;;;;1999.90;999.90;;;;;;;30.72;39.33;95762.41;5026696;28;20198;-68
2021/08/04 08:15:49;;;;;;;1999.90;999.90;;;;;;;30.62;34.79;95759.97;5026671;28;20213;-68
2021/08/04 08:18:17;;;;;;;1999.90;999.90;;;;;;;30.57;35.76;95755.84;5026520;28;20193;-68
2021/08/04 08:20:44;;;;;;;1999.90;999.90;;;;;;;30.17;36.73;95759.72;5026979;28;20198;-69
2021/08/04 08:23:11;;;;;;;1999.90;999.90;;;;;;;30.24;38.78;95759.56;5026665;28;20223;-70
2021/08/04 08:25:39;;;;;;;1999.90;999.90;;;;;;;30.05;38.45;95761.09;5026503;28;20198;-70
2021/08/04 08:28:07;;;;;;;1999.90;999.90;;;;;;;30.25;38.90;95761.09;5026373;28;20202;-70
2021/08/04 08:30:36;;;;;;;1999.90;999.90;;;;;;;30.29;37.76;95749.13;5026378;28;20198;-70
2021/08/04 08:33:05;;;;;;;1999.90;999.90;;;;;;;30.53;35.65;95757.09;5026378;28;20212;-69
2021/08/04 08:35:32;;;;;;;1999.90;999.90;;;;;;;30.79;35.09;95748.06;5026286;28;20328;-69
2021/08/04 08:38:00;;;;;;;1999.90;999.90;;;;;;;30.79;35.60;95740.00;5026378;28;20210;-70
2021/08/04 08:40:28;;;;;;;1999.90;999.90;;;;;;;31.06;35.94;95737.13;5026224;28;20229;-68
2021/08/04 08:42:56;;;;;;;1999.90;999.90;;;;;;;31.23;34.13;95738.63;5026117;28;20198;-68
2021/08/04 08:45:23;;;;;;;1999.90;999.90;;;;;;;31.27;32.46;95728.56;5026158;28;20672;-68
2021/08/04 08:47:51;;;;;;;1999.90;999.90;;;;;;;31.26;33.04;95727.03;5026161;28;20877;-68
2021/08/04 08:50:25;;;;;;;1999.90;999.90;;;;;;;31.49;31.44;95723.38;5026362;28;20591;-68
2021/08/04 08:52:52;;;;;;;1999.90;999.90;;;;;;;31.58;32.23;95727.00;5026103;28;20196;-68
2021/08/04 08:55:20;;;;;;;1999.90;999.90;;;;;;;31.66;31.94;95714.13;5026620;28;20246;-68
2021/08/04 08:57:47;;;;;;;1999.90;999.90;;;;;;;31.61;32.70;95715.41;5025825;28;20237;-69
2021/08/04 09:00:16;;;;;;;1999.90;999.90;;;;;;;31.60;35.15;95713.91;5025886;28;20237;-68
2021/08/04 09:02:44;;;;;;;1999.90;999.90;;;;;;;31.65;34.22;95706.50;5026031;28;20241;-68
2021/08/04 09:05:15;;;;;;;1999.90;999.90;;;;;;;31.72;34.63;95712.44;5025937;28;20208;-67
2021/08/04 09:07:45;;;;;;;1999.90;999.90;;;;;;;31.71;33.63;95707.50;5025897;28;20190;-70
2021/08/04 09:10:25;;;;;;;1999.90;999.90;;;;;;;31.65;32.88;95704.56;5026223;28;20242;-67
2021/08/04 09:12:54;;;;;;;1999.90;999.90;;;;;;;31.90;32.40;95707.31;5025834;28;20194;-68
2021/08/04 09:15:25;;;;;;;1999.90;999.90;;;;;;;32.01;31.66;95699.72;5025877;28;20284;-68
2021/08/04 09:18:07;;;;;;;1999.90;999.90;;;;;;;32.21;33.13;95701.50;5026043;28;20209;-68
2021/08/04 09:20:51;;;;;;;1999.90;999.90;;;;;;;32.25;33.49;95696.75;5025748;28;20359;-68
2021/08/04 09:23:21;;;;;;;1999.90;999.90;;;;;;;32.32;32.44;95700.00;5025829;28;20190;-69
2021/08/04 09:26:08;;;;;;;1999.90;999.90;;;;;;;32.16;32.71;95694.72;5026223;28;20590;-69
2021/08/04 09:28:57;;;;;;;1999.90;999.90;;;;;;;32.40;32.01;95693.22;5025816;28;20570;-68
2021/08/04 09:31:45;;;;;;;1999.90;999.90;;;;;;;32.62;29.32;95689.91;5025600;28;20186;-68
2021/08/04 09:34:30;;;;;;;1999.90;999.90;;;;;;;32.66;29.34;95687.88;5025664;28;20589;-68
2021/08/04 09:37:01;;;;;;;1999.90;999.90;;;;;;;32.69;30.53;95681.59;5025684;28;20297;-68
2021/08/04 09:39:31;;;;;;;1999.90;999.90;;;;;;;32.71;30.57;95681.94;5025488;28;20723;-68
2021/08/04 09:41:58;;;;;;;1999.90;999.90;;;;;;;32.85;32.11;95678.78;5025483;28;20202;-68
2021/08/04 09:44:25;;;;;;;1999.90;999.90;;;;;;;33.00;31.45;95682.53;5028068;28;20193;-68
2021/08/04 09:47:07;;;;;;;1999.90;999.90;;;;;;;33.17;31.55;95680.47;5028914;28;20765;-68
2021/08/04 09:49:34;;;;;;;1999.90;999.90;;;;;;;33.15;31.56;95674.75;5028870;28;20189;-69
2021/08/04 09:52:07;;;;;;;1999.90;999.90;;;;;;;32.99;31.96;95667.56;5028796;28;20226;-69
2021/08/04 09:54:41;;;;;;;1999.90;999.90;;;;;;;33.01;30.25;95673.28;5028813;28;20190;-69
2021/08/04 09:57:09;;;;;;;1999.90;999.90;;;;;;;33.04;29.00;95672.41;5028516;28;20190;-69
2021/08/04 09:59:36;;;;;;;1999.90;999.90;;;;;;;33.18;29.85;95666.56;5028538;28;20234;-69
2021/08/04 10:02:04;;;;;;;1999.90;999.90;;;;;;;33.27;28.76;95666.66;5028794;28;20206;-68
2021/08/04 10:04:32;;;;;;;1999.90;999.90;;;;;;;33.18;29.68;95669.25;5029135;28;20194;-68
2021/08/04 10:07:07;;;;;;;1999.90;999.90;;;;;;;33.14;29.00;95662.44;5029064;28;20206;-70
2021/08/04 10:09:34;;;;;;;1999.90;999.90;;;;;;;33.17;31.35;95659.69;5029036;28;20194;-69
2021/08/04 10:12:04;;;;;;;1999.90;999.90;;;;;;;33.08;33.57;95659.56;5028970;28;21121;-68
2021/08/04 10:14:32;;;;;;;1999.90;999.90;;;;;;;33.34;33.37;95662.94;5028954;28;20206;-68
2021/08/04 10:16:59;;;;;;;1999.90;999.90;;;;;;;33.52;32.46;95660.41;5028553;28;20701;-68
2021/08/04 10:19:27;;;;;;;1999.90;999.90;;;;;;;33.56;28.55;95650.25;5028329;28;20605;-68
2021/08/04 10:21:55;;;;;;;1999.90;999.90;;;;;;;33.54;29.53;95651.88;5028670;28;20193;-68
2021/08/04 10:24:22;;;;;;;1999.90;999.90;;;;;;;33.34;28.89;95646.03;5028704;28;20202;-68
2021/08/04 10:26:50;;;;;;;1999.90;999.90;;;;;;;33.19;28.56;95643.81;5028441;28;20271;-69
2021/08/04 10:29:21;;;;;;;1999.90;999.90;;;;;;;33.37;32.30;95647.84;5028281;28;20253;-68
2021/08/04 10:31:49;;;;;;;1999.90;999.90;;;;;;;33.71;30.60;95639.72;5028221;28;20194;-69
2021/08/04 10:34:16;;;;;;;1999.90;999.90;;;;;;;33.84;30.86;95635.00;5028239;28;20194;-68
2021/08/04 10:36:44;;;;;;;1999.90;999.90;;;;;;;33.83;31.50;95640.84;5028201;28;20645;-68
2021/08/04 10:39:13;;;;;;;1999.90;999.90;;;;;;;33.97;31.17;95634.94;5028086;28;20229;-68
2021/08/04 10:41:42;;;;;;;1999.90;999.90;;;;;;;33.90;31.54;95635.94;5028348;28;20222;-68
2021/08/04 10:44:24;;;;;;;1999.90;999.90;;;;;;;33.98;31.83;95636.41;5027934;28;20219;-69
2021/08/04 10:46:52;;;;;;;1999.90;999.90;;;;;;;34.11;29.89;95632.47;5028041;28;20189;-69
2021/08/04 10:49:26;;;;;;;1999.90;999.90;;;;;;;34.08;29.97;95624.47;5028052;28;20773;-67
2021/08/04 10:52:14;;;;;;;1999.90;999.90;;;;;;;34.30;28.40;95622.50;5028359;28;20196;-69
2021/08/04 10:55:07;;;;;;;1999.90;999.90;;;;;;;34.17;31.05;95621.84;5028366;28;20931;-68
2021/08/04 10:57:37;;;;;;;1999.90;999.90;;;;;;;34.26;33.44;95616.50;5027587;28;20186;-68
2021/08/04 11:00:25;;;;;;;1999.90;999.90;;;;;;;34.50;31.80;95606.66;5027664;28;20690;-68
2021/08/04 11:02:52;;;;;;;1999.90;999.90;;;;;;;34.54;28.64;95609.97;5028040;28;20556;-69